createdAt,value
2018-08-23T00:00:39.007Z,80.60
2018-08-23T00:03:16.485Z,80.60
2018-08-23T00:05:50.595Z,80.60
2018-08-23T00:08:19.492Z,80.70
2018-08-23T00:10:48.738Z,80.90
2018-08-23T00:13:17.381Z,80.80
2018-08-23T00:15:45.947Z,81.10
2018-08-23T00:18:14.490Z,81.10
2018-08-23T00:20:43.037Z,80.90
2018-08-23T00:23:11.594Z,80.90
2018-08-23T00:25:40.163Z,80.80
2018-08-23T00:28:09.115Z,80.70
2018-08-23T00:30:37.969Z,80.70
2018-08-23T00:33:06.908Z,80.70
2018-08-23T00:35:37.057Z,80.80
2018-08-23T00:38:06.461Z,81.00
2018-08-23T00:40:42.410Z,81.00
2018-08-23T00:43:12.437Z,81.30
2018-08-23T00:45:41.041Z,81.30
2018-08-23T00:48:09.613Z,81.60
2018-08-23T00:50:54.342Z,81.90
2018-08-23T00:53:22.985Z,81.80
2018-08-23T00:56:23.263Z,81.80
2018-08-23T00:58:57.172Z,81.80
2018-08-23T01:01:25.771Z,81.60
2018-08-23T01:03:54.336Z,81.90
2018-08-23T01:06:24.259Z,82.20
2018-08-23T01:08:52.804Z,82.20
2018-08-23T01:11:21.336Z,82.20
2018-08-23T01:13:49.882Z,81.90
2018-08-23T01:16:21.173Z,82.40
2018-08-23T01:18:49.806Z,82.30
2018-08-23T01:21:18.351Z,82.20
2018-08-23T01:23:46.897Z,82.30
2018-08-23T01:26:15.463Z,82.50
2018-08-23T01:28:44.029Z,82.40
2018-08-23T01:31:25.435Z,82.40
2018-08-23T01:33:55.014Z,82.60
2018-08-23T01:36:39.048Z,82.80
2018-08-23T01:39:10.271Z,82.60
2018-08-23T01:41:38.826Z,82.80
2018-08-23T01:44:07.551Z,83.00
2018-08-23T01:46:41.320Z,83.20
2018-08-23T01:49:09.902Z,83.60
2018-08-23T01:51:38.512Z,83.70
2018-08-23T01:54:07.059Z,83.80
2018-08-23T01:56:35.589Z,83.80
2018-08-23T01:59:04.154Z,84.00
2018-08-23T02:01:32.718Z,84.20
2018-08-23T02:04:01.858Z,84.10
2018-08-23T02:06:35.277Z,84.00
2018-08-23T02:09:05.628Z,84.00
2018-08-23T02:11:34.147Z,84.10
2018-08-23T02:14:02.659Z,84.10
2018-08-23T02:16:42.299Z,84.20
2018-08-23T02:19:10.883Z,84.10
2018-08-23T02:21:39.489Z,84.20
2018-08-23T02:24:08.012Z,84.40
2018-08-23T02:26:36.588Z,84.70
2018-08-23T02:29:05.512Z,84.90
2018-08-23T02:31:34.048Z,84.80
2018-08-23T02:34:02.592Z,84.90
2018-08-23T02:36:31.129Z,84.80
2018-08-23T02:39:02.874Z,85.00
2018-08-23T02:41:31.661Z,85.30
2018-08-23T02:44:00.255Z,85.50
2018-08-23T02:46:30.229Z,85.60
2018-08-23T02:48:58.812Z,85.30
2018-08-23T02:51:38.025Z,85.70
2018-08-23T02:54:11.004Z,85.60
2018-08-23T02:56:39.595Z,85.60
2018-08-23T02:59:08.212Z,85.70
2018-08-23T03:01:41.853Z,85.90
2018-08-23T03:04:16.381Z,86.00
2018-08-23T03:06:51.263Z,85.90
2018-08-23T03:09:26.642Z,85.70
2018-08-23T03:11:56.423Z,85.30
2018-08-23T03:14:26.151Z,85.50
2018-08-23T03:17:28.514Z,85.50
2018-08-23T03:20:21.219Z,85.70
2018-08-23T03:22:51.027Z,85.50
2018-08-23T03:25:20.832Z,85.50
2018-08-23T03:27:49.583Z,85.50
2018-08-23T03:30:18.939Z,85.60
2018-08-23T03:32:47.534Z,85.70
2018-08-23T03:35:16.165Z,85.60
2018-08-23T03:37:44.750Z,86.00
2018-08-23T03:40:14.511Z,85.90
2018-08-23T03:42:43.145Z,85.70
2018-08-23T03:45:16.979Z,85.90
2018-08-23T03:47:50.552Z,86.10
2018-08-23T03:50:19.096Z,86.20
2018-08-23T03:52:54.658Z,86.40
2018-08-23T03:55:24.321Z,86.60
2018-08-23T03:58:00.791Z,86.70
2018-08-23T04:00:36.955Z,86.40
2018-08-23T04:03:11.152Z,86.60
2018-08-23T04:05:39.720Z,86.60
2018-08-23T04:08:08.390Z,86.50
2018-08-23T04:10:36.970Z,86.60
2018-08-23T04:13:05.760Z,87.00
2018-08-23T04:15:34.340Z,87.20
2018-08-23T04:18:07.996Z,87.30
2018-08-23T04:20:37.362Z,87.20
2018-08-23T04:23:06.031Z,87.20
2018-08-23T04:25:34.574Z,87.40
2018-08-23T04:28:03.201Z,87.40
2018-08-23T04:30:31.761Z,87.00
2018-08-23T04:33:00.293Z,86.90
2018-08-23T04:35:29.470Z,86.70
2018-08-23T04:37:58.026Z,86.50
2018-08-23T04:40:26.569Z,86.60
2018-08-23T04:42:55.140Z,86.50
2018-08-23T04:45:30.774Z,86.30
2018-08-23T04:48:09.620Z,86.20
2018-08-23T04:50:39.299Z,86.10
2018-08-23T04:53:07.897Z,85.80
2018-08-23T04:55:36.452Z,85.50
2018-08-23T04:58:05.643Z,85.70
2018-08-23T05:00:34.236Z,85.60
2018-08-23T05:03:02.788Z,85.60
2018-08-23T05:05:31.341Z,85.80
2018-08-23T05:07:59.886Z,85.90
2018-08-23T05:10:28.459Z,85.70
2018-08-23T05:12:57.025Z,85.60
2018-08-23T05:15:25.568Z,85.40
2018-08-23T05:17:54.136Z,85.70
2018-08-23T05:20:22.701Z,85.90
2018-08-23T05:22:56.757Z,86.00
2018-08-23T05:25:25.906Z,85.90
2018-08-23T05:28:08.849Z,85.80
2018-08-23T05:30:40.340Z,85.60
2018-08-23T05:33:15.914Z,85.70
2018-08-23T05:35:44.551Z,85.10
2018-08-23T05:38:13.531Z,84.40
2018-08-23T05:40:47.509Z,84.20
2018-08-23T05:43:16.754Z,84.20
2018-08-23T05:45:49.498Z,84.20
2018-08-23T05:48:36.456Z,83.80
2018-08-23T05:51:14.214Z,83.60
2018-08-23T05:53:45.450Z,84.10
2018-08-23T05:56:14.025Z,83.70
2018-08-23T05:58:45.140Z,83.50
2018-08-23T06:01:13.766Z,83.50
2018-08-23T06:03:42.327Z,83.30
2018-08-23T06:06:10.913Z,83.00
2018-08-23T06:08:42.665Z,82.50
2018-08-23T06:11:11.994Z,82.10
2018-08-23T06:13:40.892Z,81.60
2018-08-23T06:16:09.495Z,81.00
2018-08-23T06:18:38.028Z,80.20
2018-08-23T06:21:06.580Z,79.70
2018-08-23T06:24:00.097Z,79.10
2018-08-23T06:26:40.985Z,78.80
2018-08-23T06:29:12.746Z,78.30
2018-08-23T06:31:47.811Z,77.70
2018-08-23T06:34:16.355Z,77.70
2018-08-23T06:36:46.185Z,71.80
2018-08-23T06:39:14.785Z,72.10
2018-08-23T06:41:43.333Z,72.20
2018-08-23T06:44:11.892Z,71.60
2018-08-23T06:46:40.451Z,66.30
2018-08-23T06:49:08.999Z,67.30
2018-08-23T06:51:37.558Z,62.10
2018-08-23T06:54:05.924Z,60.40
2018-08-23T06:56:37.237Z,58.70
2018-08-23T06:59:06.140Z,57.30
2018-08-23T07:01:40.316Z,56.10
2018-08-23T07:04:11.388Z,55.60
2018-08-23T07:06:40.041Z,54.60
2018-08-23T07:09:12.853Z,55.00
2018-08-23T07:11:41.623Z,54.20
2018-08-23T07:14:11.181Z,53.40
2018-08-23T07:16:40.703Z,53.60
2018-08-23T07:19:23.495Z,52.30
2018-08-23T07:21:52.897Z,51.80
2018-08-23T07:24:42.070Z,51.50
2018-08-23T07:27:11.755Z,51.10
2018-08-23T07:29:40.409Z,51.00
2018-08-23T07:32:13.215Z,51.10
2018-08-23T07:34:50.106Z,51.10
2018-08-23T07:37:19.944Z,50.70
2018-08-23T07:39:57.588Z,50.60
2018-08-23T07:42:28.265Z,50.20
2018-08-23T07:44:57.498Z,50.40
2018-08-23T07:47:26.215Z,50.00
2018-08-23T07:49:56.784Z,50.00
2018-08-23T07:52:26.477Z,48.70
2018-08-23T07:54:55.046Z,48.20
2018-08-23T07:57:23.653Z,47.60
2018-08-23T07:59:57.095Z,48.00
2018-08-23T08:02:25.979Z,48.60
2018-08-23T08:04:54.638Z,48.40
2018-08-23T08:07:28.392Z,47.10
2018-08-23T08:09:58.873Z,47.20
2018-08-23T08:12:52.160Z,45.70
2018-08-23T08:15:20.887Z,45.70
2018-08-23T08:17:49.286Z,45.40
2018-08-23T08:20:17.851Z,43.90
2018-08-23T08:22:46.400Z,44.40
2018-08-23T08:25:21.062Z,45.00
2018-08-23T08:27:50.620Z,45.00
2018-08-23T08:31:26.693Z,44.40
2018-08-23T08:33:59.430Z,43.20
2018-08-23T08:36:30.799Z,44.50
2018-08-23T08:39:00.287Z,42.30
2018-08-23T08:41:34.635Z,42.60
2018-08-23T08:44:03.217Z,41.90
2018-08-23T08:46:31.778Z,41.00
2018-08-23T08:49:00.374Z,41.00
2018-08-23T08:51:30.096Z,41.90
2018-08-23T08:54:00.018Z,42.30
2018-08-23T08:56:34.410Z,41.80
2018-08-23T08:59:03.027Z,42.80
2018-08-23T09:01:31.753Z,42.90
2018-08-23T09:04:00.327Z,41.30
2018-08-23T09:06:35.024Z,41.00
2018-08-23T09:09:13.125Z,41.40
2018-08-23T09:11:42.294Z,41.10
2018-08-23T09:14:10.928Z,39.00
2018-08-23T09:16:39.487Z,38.90
2018-08-23T09:19:08.042Z,42.60
2018-08-23T09:21:36.597Z,40.50
2018-08-23T09:24:23.978Z,39.50
2018-08-23T09:26:56.166Z,39.10
2018-08-23T09:29:36.030Z,38.80
2018-08-23T09:32:14.048Z,36.50
2018-08-23T09:34:42.737Z,36.20
2018-08-23T09:37:11.292Z,36.80
2018-08-23T09:39:40.348Z,34.60
2018-08-23T09:42:09.464Z,34.70
2018-08-23T09:44:51.691Z,34.20
2018-08-23T09:47:20.278Z,34.20
2018-08-23T09:49:50.042Z,36.60
2018-08-23T09:52:20.731Z,32.70
2018-08-23T09:54:49.295Z,32.00
2018-08-23T09:57:17.826Z,32.80
2018-08-23T09:59:50.553Z,34.30
2018-08-23T10:02:24.241Z,34.60
2018-08-23T10:04:58.138Z,34.00
2018-08-23T10:07:32.099Z,32.50
2018-08-23T10:10:12.402Z,31.60
2018-08-23T10:12:46.376Z,32.90
2018-08-23T10:15:20.158Z,34.20
2018-08-23T10:17:54.104Z,31.30
2018-08-23T10:20:27.827Z,31.20
2018-08-23T10:23:02.267Z,30.70
2018-08-23T10:25:46.757Z,27.30
2018-08-23T10:28:16.570Z,28.50
2018-08-23T10:30:45.450Z,28.50
2018-08-23T10:33:14.075Z,28.80
2018-08-23T10:35:49.810Z,25.30
2018-08-23T10:38:19.843Z,27.20
2018-08-23T10:40:49.521Z,25.40
2018-08-23T10:43:22.288Z,25.40
2018-08-23T10:45:50.812Z,23.90
2018-08-23T10:48:20.218Z,23.10
2018-08-23T10:50:50.086Z,24.30
2018-08-23T10:53:19.315Z,27.00
2018-08-23T10:55:47.891Z,23.40
2018-08-23T10:58:18.393Z,23.40
2018-08-23T11:00:46.953Z,20.80
2018-08-23T11:03:15.519Z,22.00
2018-08-23T11:05:44.134Z,21.20
2018-08-23T11:08:17.859Z,21.50
2018-08-23T11:10:51.660Z,23.00
2018-08-23T11:13:25.591Z,20.40
2018-08-23T11:15:59.517Z,19.70
2018-08-23T11:18:33.559Z,22.50
2018-08-23T11:21:02.129Z,20.70
2018-08-23T11:23:30.723Z,21.20
2018-08-23T11:25:59.325Z,19.60
2018-08-23T11:28:28.123Z,19.00
2018-08-23T11:31:02.100Z,20.30
2018-08-23T11:33:30.709Z,18.40
2018-08-23T11:35:59.285Z,18.70
2018-08-23T11:38:27.931Z,18.60
2018-08-23T11:40:56.491Z,21.20
2018-08-23T11:43:25.087Z,20.30
2018-08-23T11:46:01.912Z,19.90
2018-08-23T11:48:30.878Z,20.10
2018-08-23T11:50:59.440Z,21.10
2018-08-23T11:53:28.211Z,22.00
2018-08-23T11:55:56.600Z,21.30
2018-08-23T11:58:25.205Z,22.60
2018-08-23T12:01:00.081Z,24.10
2018-08-23T12:03:30.653Z,23.20
2018-08-23T12:05:59.223Z,22.70
2018-08-23T12:08:27.812Z,22.90
2018-08-23T12:10:56.409Z,22.80
2018-08-23T12:13:25.053Z,22.30
2018-08-23T12:15:53.668Z,23.40
2018-08-23T12:18:22.203Z,22.20
2018-08-23T12:20:50.766Z,23.20
2018-08-23T12:23:19.378Z,22.20
2018-08-23T12:25:47.909Z,21.20
2018-08-23T12:28:21.838Z,22.60
2018-08-23T12:30:50.525Z,23.00
2018-08-23T12:33:19.102Z,23.60
2018-08-23T12:35:47.727Z,22.80
2018-08-23T12:38:21.740Z,22.50
2018-08-23T12:40:55.736Z,22.20
2018-08-23T12:43:29.557Z,22.50
2018-08-23T12:46:01.636Z,23.10
2018-08-23T12:48:30.367Z,22.30
2018-08-23T12:51:00.084Z,22.00
2018-08-23T12:53:30.331Z,22.00
2018-08-23T12:55:58.904Z,21.80
2018-08-23T12:58:27.497Z,24.20
2018-08-23T13:00:56.055Z,23.10
2018-08-23T13:03:24.591Z,24.20
2018-08-23T13:05:53.179Z,22.80
2018-08-23T13:08:21.813Z,22.80
2018-08-23T13:10:50.296Z,21.70
2018-08-23T13:13:18.824Z,21.10
2018-08-23T13:15:47.403Z,21.80
2018-08-23T13:18:15.926Z,21.30
2018-08-23T13:20:44.487Z,22.20
2018-08-23T13:23:13.073Z,22.90
2018-08-23T13:25:47.375Z,23.70
2018-08-23T13:28:15.931Z,23.70
2018-08-23T13:30:44.573Z,23.60
2018-08-23T13:33:13.148Z,25.10
2018-08-23T13:35:41.758Z,23.80
2018-08-23T13:38:10.373Z,24.80
2018-08-23T13:40:39.029Z,23.00
2018-08-23T13:43:07.630Z,22.60
2018-08-23T13:45:36.202Z,22.80
2018-08-23T13:48:04.750Z,24.00
2018-08-23T13:50:33.353Z,23.90
2018-08-23T13:53:01.887Z,24.20
2018-08-23T13:55:30.462Z,24.80
2018-08-23T13:57:59.436Z,25.40
2018-08-23T14:00:33.400Z,25.40
2018-08-23T14:03:02.046Z,24.60
2018-08-23T14:05:30.661Z,25.60
2018-08-23T14:07:59.204Z,25.60
2018-08-23T14:10:27.820Z,25.00
2018-08-23T14:12:56.518Z,24.90
2018-08-23T14:15:30.371Z,23.70
2018-08-23T14:17:59.195Z,23.60
2018-08-23T14:20:27.748Z,22.00
2018-08-23T14:22:56.340Z,22.60
2018-08-23T14:25:24.957Z,22.60
2018-08-23T14:27:53.501Z,23.70
2018-08-23T14:30:22.642Z,22.60
2018-08-23T14:32:51.233Z,23.20
2018-08-23T14:35:19.832Z,23.80
2018-08-23T14:37:48.396Z,24.40
2018-08-23T14:40:16.982Z,25.00
2018-08-23T14:42:45.531Z,23.30
2018-08-23T14:45:18.290Z,25.20
2018-08-23T14:47:52.111Z,24.10
2018-08-23T14:50:20.709Z,24.00
2018-08-23T14:52:49.370Z,24.00
2018-08-23T14:55:23.294Z,23.90
2018-08-23T14:57:51.895Z,24.60
2018-08-23T15:00:20.421Z,23.60
2018-08-23T15:02:48.991Z,24.40
2018-08-23T15:05:17.552Z,24.60
2018-08-23T15:07:46.186Z,23.40
2018-08-23T15:10:14.711Z,23.50
2018-08-23T15:12:43.278Z,25.00
2018-08-23T15:15:11.837Z,24.80
2018-08-23T15:17:40.398Z,25.90
2018-08-23T15:20:08.944Z,25.00
2018-08-23T15:22:37.498Z,25.60
2018-08-23T15:25:06.370Z,25.80
2018-08-23T15:27:35.285Z,27.50
2018-08-23T15:30:05.020Z,26.60
2018-08-23T15:35:02.268Z,27.80
2018-08-23T15:37:30.838Z,27.90
2018-08-23T15:39:59.388Z,27.80
2018-08-23T15:42:27.995Z,27.60
2018-08-23T15:44:56.540Z,28.70
2018-08-23T15:47:25.216Z,28.80
2018-08-23T15:49:53.961Z,28.80
2018-08-23T15:52:22.513Z,29.20
2018-08-23T15:54:51.128Z,27.80
2018-08-23T15:57:19.666Z,28.40
2018-08-23T15:59:48.259Z,28.10
2018-08-23T16:02:16.849Z,28.20
2018-08-23T16:04:45.379Z,28.30
2018-08-23T16:07:13.930Z,28.80
2018-08-23T16:09:42.471Z,28.30
2018-08-23T16:12:11.006Z,28.00
2018-08-23T16:14:39.540Z,28.20
2018-08-23T16:17:13.442Z,28.60
2018-08-23T16:19:47.221Z,29.60
2018-08-23T16:22:15.814Z,30.00
2018-08-23T16:24:44.409Z,30.30
2018-08-23T16:27:12.961Z,30.90
2018-08-23T16:29:45.706Z,31.50
2018-08-23T16:32:18.545Z,31.40
2018-08-23T16:34:47.082Z,31.60
2018-08-23T16:37:15.674Z,31.60
2018-08-23T16:39:44.208Z,32.30
2018-08-23T16:42:12.748Z,33.00
2018-08-23T16:44:41.344Z,33.50
2018-08-23T16:47:10.470Z,34.40
2018-08-23T16:49:39.240Z,35.60
2018-08-23T16:52:08.865Z,35.80
2018-08-23T16:54:37.476Z,35.90
2018-08-23T16:57:06.571Z,36.10
2018-08-23T16:59:36.350Z,36.70
2018-08-23T17:02:05.105Z,36.30
2018-08-23T17:04:39.174Z,36.50
2018-08-23T17:07:07.800Z,36.80
2018-08-23T17:09:36.308Z,38.30
2018-08-23T17:12:04.889Z,40.10
2018-08-23T17:14:33.663Z,37.80
2018-08-23T17:17:07.617Z,39.00
2018-08-23T17:19:36.179Z,39.60
2018-08-23T17:22:04.860Z,40.70
2018-08-23T17:24:33.613Z,41.50
2018-08-23T17:27:02.061Z,42.50
2018-08-23T17:29:30.989Z,43.30
2018-08-23T17:31:59.569Z,43.70
2018-08-23T17:34:28.102Z,44.60
2018-08-23T17:36:56.728Z,45.20
2018-08-23T17:39:25.334Z,45.80
2018-08-23T17:41:54.134Z,46.30
2018-08-23T17:44:22.660Z,46.80
2018-08-23T17:46:51.468Z,46.80
2018-08-23T17:49:20.048Z,47.20
2018-08-23T17:51:48.638Z,47.50
2018-08-23T17:54:17.454Z,47.90
2018-08-23T17:56:46.076Z,48.20
2018-08-23T17:59:14.667Z,48.70
2018-08-23T18:01:43.174Z,48.80
2018-08-23T18:04:11.758Z,48.70
2018-08-23T18:06:40.314Z,48.80
2018-08-23T18:09:10.930Z,49.20
2018-08-23T18:11:39.564Z,49.30
2018-08-23T18:14:08.197Z,49.20
2018-08-23T18:16:42.333Z,49.50
2018-08-23T18:19:11.208Z,49.70
2018-08-23T18:21:40.754Z,50.00
2018-08-23T18:24:09.395Z,50.10
2018-08-23T18:26:37.926Z,49.90
2018-08-23T18:29:06.474Z,49.90
2018-08-23T18:31:35.630Z,50.20
2018-08-23T18:34:04.703Z,50.40
2018-08-23T18:36:33.248Z,50.80
2018-08-23T18:39:01.818Z,50.70
2018-08-23T18:41:30.376Z,51.40
2018-08-23T18:43:58.973Z,51.30
2018-08-23T18:46:27.499Z,51.40
2018-08-23T18:48:58.426Z,52.20
2018-08-23T18:51:29.217Z,52.00
2018-08-23T18:53:58.470Z,52.20
2018-08-23T18:56:27.644Z,52.40
2018-08-23T18:58:56.557Z,52.20
2018-08-23T19:01:25.132Z,52.10
2018-08-23T19:03:54.015Z,52.60
2018-08-23T19:06:37.746Z,52.90
2018-08-23T19:09:09.776Z,53.10
2018-08-23T19:11:40.824Z,53.40
2018-08-23T19:14:09.388Z,53.80
2018-08-23T19:16:43.400Z,53.80
2018-08-23T19:19:12.054Z,54.10
2018-08-23T19:21:40.629Z,54.20
2018-08-23T19:24:09.282Z,54.60
2018-08-23T19:26:37.905Z,54.70
2018-08-23T19:29:06.707Z,54.60
2018-08-23T19:31:36.181Z,54.60
2018-08-23T19:34:04.780Z,54.80
2018-08-23T19:36:33.353Z,54.90
2018-08-23T19:39:01.937Z,55.00
2018-08-23T19:41:30.461Z,55.40
2018-08-23T19:43:59.033Z,55.40
2018-08-23T19:46:32.976Z,55.40
2018-08-23T19:49:06.978Z,55.40
2018-08-23T19:51:35.553Z,55.90
2018-08-23T19:54:04.123Z,55.80
2018-08-23T19:56:32.668Z,56.10
2018-08-23T19:59:01.257Z,56.20
2018-08-23T20:01:29.843Z,56.50
2018-08-23T20:03:58.445Z,56.60
2018-08-23T20:06:27.018Z,56.70
2018-08-23T20:08:55.604Z,56.90
2018-08-23T20:11:24.141Z,57.10
2018-08-23T20:13:52.740Z,57.30
2018-08-23T20:16:21.274Z,57.60
2018-08-23T20:18:49.833Z,57.90
2018-08-23T20:21:18.391Z,58.00
2018-08-23T20:23:46.993Z,58.40
2018-08-23T20:26:15.618Z,58.60
2018-08-23T20:28:44.144Z,58.70
2018-08-23T20:31:12.728Z,58.80
2018-08-23T20:33:41.282Z,59.00
2018-08-23T20:36:09.917Z,59.20
2018-08-23T20:38:38.529Z,59.30
2018-08-23T20:41:07.105Z,59.60
2018-08-23T20:43:35.659Z,59.90
2018-08-23T20:46:04.239Z,60.10
2018-08-23T20:48:32.783Z,60.40
2018-08-23T20:51:01.379Z,60.50
2018-08-23T20:53:29.948Z,60.40
2018-08-23T20:55:58.479Z,60.50
2018-08-23T20:58:27.013Z,60.50
2018-08-23T21:00:55.545Z,60.80
2018-08-23T21:03:24.072Z,61.00
2018-08-23T21:05:52.591Z,61.50
2018-08-23T21:08:21.221Z,62.20
2018-08-23T21:10:49.758Z,61.90
2018-08-23T21:13:18.299Z,62.10
2018-08-23T21:15:46.872Z,62.50
2018-08-23T21:18:15.402Z,63.30
2018-08-23T21:20:43.959Z,63.20
2018-08-23T21:23:12.482Z,63.30
2018-08-23T21:25:41.034Z,63.90
2018-08-23T21:28:09.557Z,64.00
2018-08-23T21:30:38.103Z,63.90
2018-08-23T21:33:06.639Z,64.20
2018-08-23T21:35:35.187Z,64.70
2018-08-23T21:38:03.726Z,65.00
2018-08-23T21:40:32.317Z,64.80
2018-08-23T21:43:00.947Z,65.10
2018-08-23T21:45:29.474Z,64.80
2018-08-23T21:47:58.064Z,65.40
2018-08-23T21:50:26.619Z,65.60
2018-08-23T21:52:55.126Z,65.40
2018-08-23T21:55:27.850Z,65.60
2018-08-23T21:57:56.482Z,66.40
2018-08-23T22:00:25.106Z,66.20
2018-08-23T22:02:53.657Z,66.40
2018-08-23T22:05:22.223Z,66.20
2018-08-23T22:07:50.764Z,67.10
2018-08-23T22:10:19.397Z,66.20
2018-08-23T22:12:47.955Z,65.70
2018-08-23T22:15:16.487Z,65.60
2018-08-23T22:17:45.034Z,65.70
2018-08-23T22:20:13.601Z,65.70
2018-08-23T22:22:42.218Z,65.80
2018-08-23T22:25:10.809Z,65.90
2018-08-23T22:27:39.313Z,65.40
2018-08-23T22:30:07.925Z,65.00
2018-08-23T22:32:36.467Z,64.90
2018-08-23T22:35:05.122Z,65.00
2018-08-23T22:37:33.865Z,65.00
2018-08-23T22:40:02.498Z,65.10
2018-08-23T22:42:31.028Z,65.60
2018-08-23T22:44:59.539Z,65.20
2018-08-23T22:47:28.090Z,65.20
2018-08-23T22:49:56.668Z,65.70
2018-08-23T22:52:25.185Z,65.60
2018-08-23T22:54:53.708Z,66.30
2018-08-23T22:57:22.234Z,66.00
2018-08-23T22:59:50.780Z,66.30
2018-08-23T23:02:24.669Z,66.10
2018-08-23T23:04:53.276Z,66.50
2018-08-23T23:07:21.813Z,66.20
2018-08-23T23:09:50.379Z,66.50
2018-08-23T23:12:19.056Z,67.10
2018-08-23T23:14:47.613Z,67.00
2018-08-23T23:17:16.120Z,67.50
2018-08-23T23:19:44.680Z,67.60
2018-08-23T23:22:13.207Z,68.30
2018-08-23T23:24:47.119Z,68.40
2018-08-23T23:27:15.703Z,68.40
2018-08-23T23:29:44.255Z,68.60
2018-08-23T23:32:12.802Z,68.40
2018-08-23T23:34:41.356Z,68.00
2018-08-23T23:37:09.930Z,68.20
2018-08-23T23:39:38.492Z,68.10
2018-08-23T23:42:07.102Z,67.70
2018-08-23T23:44:35.694Z,67.50
2018-08-23T23:47:04.293Z,67.50
2018-08-23T23:49:32.809Z,67.50
2018-08-23T23:52:01.349Z,67.40
2018-08-23T23:54:29.863Z,67.30
2018-08-23T23:56:58.451Z,67.50
2018-08-23T23:59:26.986Z,67.60
